Captain Duane Patrick — WDE8361 — position and weather

sailwx.info

Track history (hours):
 
Tides and Currents Weather Stations Pressure Air Temp Water Temp Dewpoint Dewpoint Depression Visibility Wind Speed Wind Dir Waves Ship Positions

Captain Duane Patrick

Owner: Lafayette Workboat Rentals LLC., Broussard, LA. More information available from US FCC via Universal Licensing System and Coast Guard Vessel Documentation Center.

Last reported at 2018-May-24 14:00 UTC. Time now 2018-May-24 14:05 UTC.
Position N 29°03' W 095°13'.

Length 18 m.

MMSI: 367404580.

Date/timePositionNaut miles runAvg speedWind from/ knotsBaromVisibWave heightAir tempDewpointWater temp
2018-May-24 14:00N 29°03' W 095°13'3 5.4
2018-May-24 13:30N 29°00' W 095°15'6 0.3
2018-May-23 20:35N 28°57' W 095°20'0 1.1
2018-May-23 20:30N 28°57' W 095°20'0 0.2
2018-May-23 20:00N 28°57' W 095°20'0 0.0
2018-May-23 19:28N 28°57' W 095°20'0 0.0
2018-May-23 18:58N 28°57' W 095°20'0 0.0
2018-May-23 18:12N 28°57' W 095°20'0 0.0
2018-May-23 18:00N 28°57' W 095°20'0 0.0
2018-May-23 17:29N 28°57' W 095°20'0 0.0
2018-May-23 16:29N 28°57' W 095°20'0 0.0
2018-May-23 15:50N 28°57' W 095°20'0 0.0
2018-May-23 15:21N 28°57' W 095°20'0 0.0
2018-May-23 15:00N 28°57' W 095°20'0 0.0
2018-May-23 14:13N 28°57' W 095°20'0 0.0
2018-May-23 13:55N 28°57' W 095°20'0 0.0
2018-May-23 13:28N 28°57' W 095°20'0 0.0
2018-May-23 12:58N 28°57' W 095°20'0 0.0
2018-May-23 11:48N 28°57' W 095°20'0 0.0
2018-May-23 11:30N 28°57' W 095°20'0 0.0
2018-May-23 10:59N 28°57' W 095°20'0 0.0
2018-May-23 10:24N 28°57' W 095°20'0 0.0
2018-May-23 09:59N 28°57' W 095°20'0 0.0
2018-May-23 09:29N 28°57' W 095°20'0 0.0
2018-May-23 08:58N 28°57' W 095°20'0 0.0
2018-May-23 07:53N 28°57' W 095°20'0 0.0
2018-May-23 05:55N 28°57' W 095°20'1 1.4
2018-May-23 05:29N 28°57' W 095°20'2 3.5
2018-May-23 05:00N 28°57' W 095°18'3 6.0
2018-May-23 04:30N 28°59' W 095°16'3 6.0
2018-May-23 04:00N 29°02' W 095°14'3 5.8
2018-May-23 03:30N 29°05' W 095°13'3 5.6
2018-May-23 03:00N 29°07' W 095°11'3 5.8
2018-May-23 02:30N 29°09' W 095°09'3 6.0
2018-May-23 02:00N 29°11' W 095°06'3 5.9
2018-May-23 01:30N 29°12' W 095°03'3 5.6
2018-May-23 01:00N 29°14' W 095°01'3 5.9
2018-May-23 00:30N 29°17' W 094°59'3 5.7
2018-May-23 00:00N 29°17' W 094°56'3 4.9
2018-May-22 23:30N 29°18' W 094°53'3 6.0
2018-May-22 22:59N 29°20' W 094°50'2 5.2
2018-May-22 22:30N 29°22' W 094°48'4 6.2
2018-May-22 21:56N 29°25' W 094°50'6 6.1
2018-May-22 21:01N 29°30' W 094°53'0 6.2
2018-May-22 20:57N 29°31' W 094°53'3 5.9
2018-May-22 20:30N 29°33' W 094°55'3 6.2
2018-May-22 20:00N 29°35' W 094°57'3 6.0
2018-May-22 19:30N 29°38' W 094°58'3 6.5
2018-May-22 19:00N 29°41' W 094°59'3 5.7
2018-May-22 18:26N 29°44' W 095°02'12 0.8
2018-May-22 03:42N 29°43' W 095°15'1 5.2
2018-May-22 03:28N 29°44' W 095°14'3 5.5
2018-May-22 02:56N 29°45' W 095°11'8 1.4
2018-May-21 20:54N 29°43' W 095°01'3 6.7
2018-May-21 20:30N 29°41' W 094°59'4 7.5
2018-May-21 20:00N 29°38' W 094°58'4 7.5
2018-May-21 19:30N 29°34' W 094°56'4 7.9
2018-May-21 19:00N 29°31' W 094°53'9 8.6
2018-May-21 17:56N 29°23' W 094°49'3 6.7
2018-May-21 17:30N 29°20' W 094°50'3 6.3
2018-May-21 17:00N 29°18' W 094°53'3 4.9
2018-May-21 16:30N 29°17' W 094°56'3 6.2
2018-May-21 16:00N 29°16' W 094°59'4 7.1
2018-May-21 15:30N 29°14' W 095°02'3 6.8
2018-May-21 15:00N 29°12' W 095°04'4 7.1
2018-May-21 14:30N 29°10' W 095°08'4 7.5
2018-May-21 14:00N 29°07' W 095°11'4 7.3
2018-May-21 13:30N 29°04' W 095°13'4 7.1
2018-May-21 12:59N 29°00' W 095°15'6 6.3
2018-May-21 12:00N 28°56' W 095°20'1 1.8
2018-May-21 11:30N 28°57' W 095°20'0 0.0
2018-May-21 10:52N 28°57' W 095°20'0 0.0
2018-May-21 10:05N 28°57' W 095°20'0 0.1
2018-May-21 09:59N 28°57' W 095°20'0 0.0
2018-May-21 09:25N 28°57' W 095°20'0 0.0
2018-May-21 08:39N 28°57' W 095°20'0 0.0
2018-May-21 02:12N 28°57' W 095°20'0 0.0
2018-May-21 00:28N 28°57' W 095°20'0 0.0
2018-May-20 23:54N 28°57' W 095°20'0 0.0
2018-May-20 23:28N 28°57' W 095°20'0 0.0
2018-May-20 22:27N 28°57' W 095°20'0 0.2
2018-May-20 21:59N 28°57' W 095°20'0 0.0
2018-May-20 21:30N 28°57' W 095°20'0 0.0
2018-May-20 21:00N 28°57' W 095°20'0 0.0
2018-May-20 20:30N 28°57' W 095°20'0 0.0
2018-May-20 20:00N 28°57' W 095°20'0 0.0
2018-May-20 19:30N 28°57' W 095°20'0 0.0
2018-May-20 19:00N 28°57' W 095°20'0 0.0
2018-May-20 18:30N 28°57' W 095°20'0 0.0
2018-May-20 17:58N 28°57' W 095°20'0 0.0
2018-May-20 17:30N 28°57' W 095°20'0 0.0
2018-May-20 14:11N 28°57' W 095°20'1 0.0
2018-May-19 09:46N 28°57' W 095°20'0 0.1
2018-May-19 09:29N 28°57' W 095°20'0 0.9
2018-May-19 08:59N 28°56' W 095°20'3 4.9
2018-May-19 08:23N 28°58' W 095°17'2 5.5
2018-May-19 08:00N 28°59' W 095°15'3 5.9
2018-May-19 07:30N 29°02' W 095°14'3 5.5
2018-May-19 07:00N 29°04' W 095°13'3 5.3
2018-May-19 06:30N 29°07' W 095°12'3 5.3
2018-May-19 06:00N 29°09' W 095°09'3 5.5
2018-May-19 05:30N 29°10' W 095°07'3 5.0
2018-May-19 05:00N 29°12' W 095°04'3 5.2
2018-May-19 04:30N 29°13' W 095°02'3 5.2
2018-May-19 04:00N 29°15' W 095°00'3 5.1
2018-May-19 03:30N 29°17' W 094°58'2 5.0
2018-May-19 03:00N 29°17' W 094°55'2 4.4
2018-May-19 02:30N 29°18' W 094°53'3 5.5
2018-May-19 01:58N 29°20' W 094°50'3 4.8
2018-May-19 01:27N 29°22' W 094°48'8 6.5
2018-May-19 00:16N 29°29' W 094°52'2 6.5
2018-May-18 23:59N 29°31' W 094°53'3 6.4
2018-May-18 23:30N 29°33' W 094°55'3 6.1
2018-May-18 23:00N 29°36' W 094°57'3 6.1
2018-May-18 22:30N 29°39' W 094°58'3 6.3
2018-May-18 22:00N 29°41' W 094°59'9 4.2
2018-May-18 19:58N 29°44' W 095°09'7 0.7
2018-May-18 10:48N 29°43' W 095°16'0 0.0
2018-May-18 10:29N 29°43' W 095°16'0 0.0
2018-May-18 09:56N 29°43' W 095°16'0 0.0
2018-May-18 09:28N 29°43' W 095°16'0 0.0
2018-May-18 09:00N 29°43' W 095°16'0 0.0
2018-May-18 08:29N 29°43' W 095°16'0 0.0
2018-May-18 08:00N 29°43' W 095°16'0 0.0
2018-May-18 07:30N 29°43' W 095°16'0 0.2
2018-May-18 07:00N 29°43' W 095°16'0 0.0
2018-May-18 06:30N 29°43' W 095°16'0 0.0
2018-May-18 05:59N 29°43' W 095°16'0 0.0
2018-May-18 05:30N 29°43' W 095°16'0 0.0
2018-May-18 05:00N 29°43' W 095°16'0 0.0
2018-May-18 04:30N 29°43' W 095°16'0 0.0
2018-May-18 04:00N 29°43' W 095°16'0 0.0
2018-May-18 03:30N 29°43' W 095°16'0 0.2
2018-May-18 02:59N 29°43' W 095°16'0 0.1
2018-May-18 02:28N 29°43' W 095°16'11 4.1
2018-May-17 23:45N 29°44' W 095°03'2 5.4
2018-May-17 23:20N 29°43' W 095°01'2 5.1
2018-May-17 23:00N 29°42' W 094°60'3 5.9
2018-May-17 22:30N 29°39' W 094°58'3 6.4
2018-May-17 22:00N 29°36' W 094°57'3 6.3
2018-May-17 21:30N 29°34' W 094°55'3 6.8
2018-May-17 21:00N 29°31' W 094°53'4 6.7
2018-May-17 20:22N 29°27' W 094°51'6 6.1
2018-May-17 19:23N 29°21' W 094°48'2 6.5
2018-May-17 19:00N 29°20' W 094°51'3 6.3
2018-May-17 18:28N 29°17' W 094°53'3 5.7
2018-May-17 18:00N 29°17' W 094°56'3 5.5
2018-May-17 17:30N 29°16' W 094°59'3 5.8
2018-May-17 17:00N 29°14' W 095°02'3 5.5
2018-May-17 16:30N 29°12' W 095°04'3 5.8
2018-May-17 16:00N 29°10' W 095°07'3 6.1
2018-May-17 15:30N 29°09' W 095°10'3 6.3
2018-May-17 14:59N 29°06' W 095°12'3 6.7
2018-May-17 14:30N 29°03' W 095°13'4 6.9
2018-May-17 13:58N 28°60' W 095°15'3 7.0
2018-May-17 13:30N 28°57' W 095°18'2 3.6
2018-May-17 12:57N 28°57' W 095°20'1 0.5
2018-May-17 11:48N 28°57' W 095°20'0 0.0
2018-May-17 11:26N 28°57' W 095°20'0 0.0
2018-May-17 11:00N 28°57' W 095°20'0 0.0
2018-May-17 09:28N 28°57' W 095°20'0 0.0
2018-May-17 09:00N 28°57' W 095°20'0 0.0
2018-May-17 08:30N 28°57' W 095°20'0 0.0
2018-May-17 06:47N 28°57' W 095°20'0 0.0
2018-May-17 06:18N 28°57' W 095°20'0 0.0
2018-May-17 06:00N 28°57' W 095°20'0 0.0
2018-May-17 05:28N 28°57' W 095°20'0 0.0
2018-May-17 04:57N 28°57' W 095°20'0 0.0
2018-May-17 04:30N 28°57' W 095°20'0 0.0
2018-May-17 03:59N 28°57' W 095°20'0 0.0
2018-May-17 03:29N 28°57' W 095°20'0 0.0
2018-May-17 03:00N 28°57' W 095°20'0 0.0
2018-May-17 02:30N 28°57' W 095°20'0 0.0
2018-May-17 01:59N 28°57' W 095°20'0 0.0
2018-May-17 01:26N 28°57' W 095°20'0 0.0
2018-May-17 01:00N 28°57' W 095°20'0 0.0
2018-May-17 00:24N 28°57' W 095°20'0 0.0
2018-May-16 23:49N 28°57' W 095°20'0 0.0
2018-May-16 23:27N 28°57' W 095°20'0 0.0
2018-May-16 22:58N 28°57' W 095°20'0 0.0
2018-May-16 22:28N 28°57' W 095°20'0 0.0
2018-May-16 22:00N 28°57' W 095°20'0 0.0
2018-May-16 21:30N 28°57' W 095°20'0 0.0
2018-May-16 21:00N 28°57' W 095°20'0 0.0
2018-May-16 20:30N 28°57' W 095°20'0 0.0
2018-May-16 20:00N 28°57' W 095°20'0 0.0
2018-May-16 19:30N 28°57' W 095°20'0 0.0
2018-May-16 19:00N 28°57' W 095°20'0 0.0
2018-May-16 18:30N 28°57' W 095°20'0 0.0
2018-May-16 18:00N 28°57' W 095°20'0 0.0
2018-May-16 17:30N 28°57' W 095°20'0 0.0
2018-May-16 16:54N 28°57' W 095°20'0 0.1
2018-May-16 16:30N 28°57' W 095°20'0 0.0
2018-May-16 15:39N 28°57' W 095°20'0 0.0
2018-May-16 14:47N 28°57' W 095°20'0 0.0
2018-May-16 14:30N 28°57' W 095°20'0 0.0
2018-May-16 13:18N 28°57' W 095°20'0 0.0
2018-May-16 13:00N 28°57' W 095°20'0 0.2
2018-May-16 12:30N 28°57' W 095°20'0 0.0
2018-May-16 12:00N 28°57' W 095°20'0 0.0
2018-May-16 11:30N 28°57' W 095°20'0 0.0
2018-May-16 10:59N 28°57' W 095°20'0 0.0
2018-May-16 10:30N 28°57' W 095°20'0 0.0
2018-May-16 10:00N 28°57' W 095°20'0 0.0
2018-May-16 09:30N 28°57' W 095°20'0 0.0
2018-May-16 09:00N 28°57' W 095°20'0 0.0
2018-May-16 08:30N 28°57' W 095°20'0 0.0
2018-May-16 08:00N 28°57' W 095°20'0 0.0
2018-May-16 07:30N 28°57' W 095°20'0 0.0
2018-May-16 07:00N 28°57' W 095°20'0 0.0
2018-May-16 06:30N 28°57' W 095°20'0 0.0
2018-May-16 06:00N 28°57' W 095°20'0 0.0
2018-May-16 05:28N 28°57' W 095°20'0 0.0
2018-May-16 05:00N 28°57' W 095°20'0 0.0
2018-May-16 04:30N 28°57' W 095°20'0 0.1
2018-May-16 03:57N 28°57' W 095°20'1 2.4
2018-May-16 03:30N 28°56' W 095°20'2 4.4
2018-May-16 03:00N 28°57' W 095°18'2 4.7
2018-May-16 02:30N 28°59' W 095°16'3 7.0
2018-May-16 02:00N 29°02' W 095°14'4 6.5
2018-May-16 01:27N 29°05' W 095°12'3 5.9
2018-May-16 00:58N 29°08' W 095°10'3 6.2
2018-May-16 00:30N 29°10' W 095°08'4 6.3
2018-May-15 23:48N 29°12' W 095°04'20 5.2
2018-May-15 19:54N 29°29' W 094°52'3 7.3
2018-May-15 19:30N 29°32' W 094°54'4 7.5
2018-May-15 19:00N 29°35' W 094°56'4 7.1
2018-May-15 18:30N 29°38' W 094°58'4 7.3
2018-May-15 18:00N 29°41' W 094°59'9 5.7
2018-May-15 16:30N 29°44' W 095°09'7 3.1
2018-May-15 14:23N 29°43' W 095°16'0 0.0
2018-May-15 13:23N 29°43' W 095°16'0 0.0
2018-May-15 12:55N 29°43' W 095°16'0 0.0
2018-May-15 12:21N 29°43' W 095°16'0 0.0
2018-May-15 11:47N 29°43' W 095°16'0 0.0
2018-May-15 10:17N 29°43' W 095°16'0 0.0
2018-May-15 04:30N 29°43' W 095°16'0 0.0
2018-May-15 02:32N 29°43' W 095°16'0 0.0
2018-May-15 02:13N 29°43' W 095°16'0 0.1
2018-May-15 02:00N 29°43' W 095°16'2 4.4
2018-May-15 01:30N 29°43' W 095°14'3 6.5
2018-May-15 01:00N 29°45' W 095°10'5 6.2
2018-May-15 00:17N 29°46' W 095°05'  
Track history (hours):
 
Tides and Currents Weather Stations Pressure Air Temp Water Temp Dewpoint Dewpoint Depression Visibility Wind Speed Wind Dir Waves Ship Positions

Captain Duane Patrick

Owner: Lafayette Workboat Rentals LLC., Broussard, LA. More information available from US FCC via Universal Licensing System and Coast Guard Vessel Documentation Center.

Last reported at 2018-May-24 14:00 UTC. Time now 2018-May-24 14:05 UTC.
Position N 29°03' W 095°13'.

Length 18 m.

MMSI: 367404580.

Date/timePositionNaut miles runAvg speedWind from/ knotsBaromVisibWave heightAir tempDewpointWater temp
2018-May-24 14:00N 29°03' W 095°13'3 5.4
2018-May-24 13:30N 29°00' W 095°15'6 0.3
2018-May-23 20:35N 28°57' W 095°20'0 1.1
2018-May-23 20:30N 28°57' W 095°20'0 0.2
2018-May-23 20:00N 28°57' W 095°20'0 0.0
2018-May-23 19:28N 28°57' W 095°20'0 0.0
2018-May-23 18:58N 28°57' W 095°20'0 0.0
2018-May-23 18:12N 28°57' W 095°20'0 0.0
2018-May-23 18:00N 28°57' W 095°20'0 0.0
2018-May-23 17:29N 28°57' W 095°20'0 0.0
2018-May-23 16:29N 28°57' W 095°20'0 0.0
2018-May-23 15:50N 28°57' W 095°20'0 0.0
2018-May-23 15:21N 28°57' W 095°20'0 0.0
2018-May-23 15:00N 28°57' W 095°20'0 0.0
2018-May-23 14:13N 28°57' W 095°20'0 0.0
2018-May-23 13:55N 28°57' W 095°20'0 0.0
2018-May-23 13:28N 28°57' W 095°20'0 0.0
2018-May-23 12:58N 28°57' W 095°20'0 0.0
2018-May-23 11:48N 28°57' W 095°20'0 0.0
2018-May-23 11:30N 28°57' W 095°20'0 0.0
2018-May-23 10:59N 28°57' W 095°20'0 0.0
2018-May-23 10:24N 28°57' W 095°20'0 0.0
2018-May-23 09:59N 28°57' W 095°20'0 0.0
2018-May-23 09:29N 28°57' W 095°20'0 0.0
2018-May-23 08:58N 28°57' W 095°20'0 0.0
2018-May-23 07:53N 28°57' W 095°20'0 0.0
2018-May-23 05:55N 28°57' W 095°20'1 1.4
2018-May-23 05:29N 28°57' W 095°20'2 3.5
2018-May-23 05:00N 28°57' W 095°18'3 6.0
2018-May-23 04:30N 28°59' W 095°16'3 6.0
2018-May-23 04:00N 29°02' W 095°14'3 5.8
2018-May-23 03:30N 29°05' W 095°13'3 5.6
2018-May-23 03:00N 29°07' W 095°11'3 5.8
2018-May-23 02:30N 29°09' W 095°09'3 6.0
2018-May-23 02:00N 29°11' W 095°06'3 5.9
2018-May-23 01:30N 29°12' W 095°03'3 5.6
2018-May-23 01:00N 29°14' W 095°01'3 5.9
2018-May-23 00:30N 29°17' W 094°59'3 5.7
2018-May-23 00:00N 29°17' W 094°56'3 4.9
2018-May-22 23:30N 29°18' W 094°53'3 6.0
2018-May-22 22:59N 29°20' W 094°50'2 5.2
2018-May-22 22:30N 29°22' W 094°48'4 6.2
2018-May-22 21:56N 29°25' W 094°50'6 6.1
2018-May-22 21:01N 29°30' W 094°53'0 6.2
2018-May-22 20:57N 29°31' W 094°53'3 5.9
2018-May-22 20:30N 29°33' W 094°55'3 6.2
2018-May-22 20:00N 29°35' W 094°57'3 6.0
2018-May-22 19:30N 29°38' W 094°58'3 6.5
2018-May-22 19:00N 29°41' W 094°59'3 5.7
2018-May-22 18:26N 29°44' W 095°02'12 0.8
2018-May-22 03:42N 29°43' W 095°15'1 5.2
2018-May-22 03:28N 29°44' W 095°14'3 5.5
2018-May-22 02:56N 29°45' W 095°11'8 1.4
2018-May-21 20:54N 29°43' W 095°01'3 6.7
2018-May-21 20:30N 29°41' W 094°59'4 7.5
2018-May-21 20:00N 29°38' W 094°58'4 7.5
2018-May-21 19:30N 29°34' W 094°56'4 7.9
2018-May-21 19:00N 29°31' W 094°53'9 8.6
2018-May-21 17:56N 29°23' W 094°49'3 6.7
2018-May-21 17:30N 29°20' W 094°50'3 6.3
2018-May-21 17:00N 29°18' W 094°53'3 4.9
2018-May-21 16:30N 29°17' W 094°56'3 6.2
2018-May-21 16:00N 29°16' W 094°59'4 7.1
2018-May-21 15:30N 29°14' W 095°02'3 6.8
2018-May-21 15:00N 29°12' W 095°04'4 7.1
2018-May-21 14:30N 29°10' W 095°08'4 7.5
2018-May-21 14:00N 29°07' W 095°11'4 7.3
2018-May-21 13:30N 29°04' W 095°13'4 7.1
2018-May-21 12:59N 29°00' W 095°15'6 6.3
2018-May-21 12:00N 28°56' W 095°20'1 1.8
2018-May-21 11:30N 28°57' W 095°20'0 0.0
2018-May-21 10:52N 28°57' W 095°20'0 0.0
2018-May-21 10:05N 28°57' W 095°20'0 0.1
2018-May-21 09:59N 28°57' W 095°20'0 0.0
2018-May-21 09:25N 28°57' W 095°20'0 0.0
2018-May-21 08:39N 28°57' W 095°20'0 0.0
2018-May-21 02:12N 28°57' W 095°20'0 0.0
2018-May-21 00:28N 28°57' W 095°20'0 0.0
2018-May-20 23:54N 28°57' W 095°20'0 0.0
2018-May-20 23:28N 28°57' W 095°20'0 0.0
2018-May-20 22:27N 28°57' W 095°20'0 0.2
2018-May-20 21:59N 28°57' W 095°20'0 0.0
2018-May-20 21:30N 28°57' W 095°20'0 0.0
2018-May-20 21:00N 28°57' W 095°20'0 0.0
2018-May-20 20:30N 28°57' W 095°20'0 0.0
2018-May-20 20:00N 28°57' W 095°20'0 0.0
2018-May-20 19:30N 28°57' W 095°20'0 0.0
2018-May-20 19:00N 28°57' W 095°20'0 0.0
2018-May-20 18:30N 28°57' W 095°20'0 0.0
2018-May-20 17:58N 28°57' W 095°20'0 0.0
2018-May-20 17:30N 28°57' W 095°20'0 0.0
2018-May-20 14:11N 28°57' W 095°20'1 0.0
2018-May-19 09:46N 28°57' W 095°20'0 0.1
2018-May-19 09:29N 28°57' W 095°20'0 0.9
2018-May-19 08:59N 28°56' W 095°20'3 4.9
2018-May-19 08:23N 28°58' W 095°17'2 5.5
2018-May-19 08:00N 28°59' W 095°15'3 5.9
2018-May-19 07:30N 29°02' W 095°14'3 5.5
2018-May-19 07:00N 29°04' W 095°13'3 5.3
2018-May-19 06:30N 29°07' W 095°12'3 5.3
2018-May-19 06:00N 29°09' W 095°09'3 5.5
2018-May-19 05:30N 29°10' W 095°07'3 5.0
2018-May-19 05:00N 29°12' W 095°04'3 5.2
2018-May-19 04:30N 29°13' W 095°02'3 5.2
2018-May-19 04:00N 29°15' W 095°00'3 5.1
2018-May-19 03:30N 29°17' W 094°58'2 5.0
2018-May-19 03:00N 29°17' W 094°55'2 4.4
2018-May-19 02:30N 29°18' W 094°53'3 5.5
2018-May-19 01:58N 29°20' W 094°50'3 4.8
2018-May-19 01:27N 29°22' W 094°48'8 6.5
2018-May-19 00:16N 29°29' W 094°52'2 6.5
2018-May-18 23:59N 29°31' W 094°53'3 6.4
2018-May-18 23:30N 29°33' W 094°55'3 6.1
2018-May-18 23:00N 29°36' W 094°57'3 6.1
2018-May-18 22:30N 29°39' W 094°58'3 6.3
2018-May-18 22:00N 29°41' W 094°59'9 4.2
2018-May-18 19:58N 29°44' W 095°09'7 0.7
2018-May-18 10:48N 29°43' W 095°16'0 0.0
2018-May-18 10:29N 29°43' W 095°16'0 0.0
2018-May-18 09:56N 29°43' W 095°16'0 0.0
2018-May-18 09:28N 29°43' W 095°16'0 0.0
2018-May-18 09:00N 29°43' W 095°16'0 0.0
2018-May-18 08:29N 29°43' W 095°16'0 0.0
2018-May-18 08:00N 29°43' W 095°16'0 0.0
2018-May-18 07:30N 29°43' W 095°16'0 0.2
2018-May-18 07:00N 29°43' W 095°16'0 0.0
2018-May-18 06:30N 29°43' W 095°16'0 0.0
2018-May-18 05:59N 29°43' W 095°16'0 0.0
2018-May-18 05:30N 29°43' W 095°16'0 0.0
2018-May-18 05:00N 29°43' W 095°16'0 0.0
2018-May-18 04:30N 29°43' W 095°16'0 0.0
2018-May-18 04:00N 29°43' W 095°16'0 0.0
2018-May-18 03:30N 29°43' W 095°16'0 0.2
2018-May-18 02:59N 29°43' W 095°16'0 0.1
2018-May-18 02:28N 29°43' W 095°16'11 4.1
2018-May-17 23:45N 29°44' W 095°03'2 5.4
2018-May-17 23:20N 29°43' W 095°01'2 5.1
2018-May-17 23:00N 29°42' W 094°60'3 5.9
2018-May-17 22:30N 29°39' W 094°58'3 6.4
2018-May-17 22:00N 29°36' W 094°57'3 6.3
2018-May-17 21:30N 29°34' W 094°55'3 6.8
2018-May-17 21:00N 29°31' W 094°53'4 6.7
2018-May-17 20:22N 29°27' W 094°51'6 6.1
2018-May-17 19:23N 29°21' W 094°48'2 6.5
2018-May-17 19:00N 29°20' W 094°51'3 6.3
2018-May-17 18:28N 29°17' W 094°53'3 5.7
2018-May-17 18:00N 29°17' W 094°56'3 5.5
2018-May-17 17:30N 29°16' W 094°59'3 5.8
2018-May-17 17:00N 29°14' W 095°02'3 5.5
2018-May-17 16:30N 29°12' W 095°04'3 5.8
2018-May-17 16:00N 29°10' W 095°07'3 6.1
2018-May-17 15:30N 29°09' W 095°10'3 6.3
2018-May-17 14:59N 29°06' W 095°12'3 6.7
2018-May-17 14:30N 29°03' W 095°13'4 6.9
2018-May-17 13:58N 28°60' W 095°15'3 7.0
2018-May-17 13:30N 28°57' W 095°18'2 3.6
2018-May-17 12:57N 28°57' W 095°20'1 0.5
2018-May-17 11:48N 28°57' W 095°20'0 0.0
2018-May-17 11:26N 28°57' W 095°20'0 0.0
2018-May-17 11:00N 28°57' W 095°20'0 0.0
2018-May-17 09:28N 28°57' W 095°20'0 0.0
2018-May-17 09:00N 28°57' W 095°20'0 0.0
2018-May-17 08:30N 28°57' W 095°20'0 0.0
2018-May-17 06:47N 28°57' W 095°20'0 0.0
2018-May-17 06:18N 28°57' W 095°20'0 0.0
2018-May-17 06:00N 28°57' W 095°20'0 0.0
2018-May-17 05:28N 28°57' W 095°20'0 0.0
2018-May-17 04:57N 28°57' W 095°20'0 0.0
2018-May-17 04:30N 28°57' W 095°20'0 0.0
2018-May-17 03:59N 28°57' W 095°20'0 0.0
2018-May-17 03:29N 28°57' W 095°20'0 0.0
2018-May-17 03:00N 28°57' W 095°20'0 0.0
2018-May-17 02:30N 28°57' W 095°20'0 0.0
2018-May-17 01:59N 28°57' W 095°20'0 0.0
2018-May-17 01:26N 28°57' W 095°20'0 0.0
2018-May-17 01:00N 28°57' W 095°20'0 0.0
2018-May-17 00:24N 28°57' W 095°20'0 0.0
2018-May-16 23:49N 28°57' W 095°20'0 0.0
2018-May-16 23:27N 28°57' W 095°20'0 0.0
2018-May-16 22:58N 28°57' W 095°20'0 0.0
2018-May-16 22:28N 28°57' W 095°20'0 0.0
2018-May-16 22:00N 28°57' W 095°20'0 0.0
2018-May-16 21:30N 28°57' W 095°20'0 0.0
2018-May-16 21:00N 28°57' W 095°20'0 0.0
2018-May-16 20:30N 28°57' W 095°20'0 0.0
2018-May-16 20:00N 28°57' W 095°20'0 0.0
2018-May-16 19:30N 28°57' W 095°20'0 0.0
2018-May-16 19:00N 28°57' W 095°20'0 0.0
2018-May-16 18:30N 28°57' W 095°20'0 0.0
2018-May-16 18:00N 28°57' W 095°20'0 0.0
2018-May-16 17:30N 28°57' W 095°20'0 0.0
2018-May-16 16:54N 28°57' W 095°20'0 0.1
2018-May-16 16:30N 28°57' W 095°20'0 0.0
2018-May-16 15:39N 28°57' W 095°20'0 0.0
2018-May-16 14:47N 28°57' W 095°20'0 0.0
2018-May-16 14:30N 28°57' W 095°20'0 0.0
2018-May-16 13:18N 28°57' W 095°20'0 0.0
2018-May-16 13:00N 28°57' W 095°20'0 0.2
2018-May-16 12:30N 28°57' W 095°20'0 0.0
2018-May-16 12:00N 28°57' W 095°20'0 0.0
2018-May-16 11:30N 28°57' W 095°20'0 0.0
2018-May-16 10:59N 28°57' W 095°20'0 0.0
2018-May-16 10:30N 28°57' W 095°20'0 0.0
2018-May-16 10:00N 28°57' W 095°20'0 0.0
2018-May-16 09:30N 28°57' W 095°20'0 0.0
2018-May-16 09:00N 28°57' W 095°20'0 0.0
2018-May-16 08:30N 28°57' W 095°20'0 0.0
2018-May-16 08:00N 28°57' W 095°20'0 0.0
2018-May-16 07:30N 28°57' W 095°20'0 0.0
2018-May-16 07:00N 28°57' W 095°20'0 0.0
2018-May-16 06:30N 28°57' W 095°20'0 0.0
2018-May-16 06:00N 28°57' W 095°20'0 0.0
2018-May-16 05:28N 28°57' W 095°20'0 0.0
2018-May-16 05:00N 28°57' W 095°20'0 0.0
2018-May-16 04:30N 28°57' W 095°20'0 0.1
2018-May-16 03:57N 28°57' W 095°20'1 2.4
2018-May-16 03:30N 28°56' W 095°20'2 4.4
2018-May-16 03:00N 28°57' W 095°18'2 4.7
2018-May-16 02:30N 28°59' W 095°16'3 7.0
2018-May-16 02:00N 29°02' W 095°14'4 6.5
2018-May-16 01:27N 29°05' W 095°12'3 5.9
2018-May-16 00:58N 29°08' W 095°10'3 6.2
2018-May-16 00:30N 29°10' W 095°08'4 6.3
2018-May-15 23:48N 29°12' W 095°04'20 5.2
2018-May-15 19:54N 29°29' W 094°52'3 7.3
2018-May-15 19:30N 29°32' W 094°54'4 7.5
2018-May-15 19:00N 29°35' W 094°56'4 7.1
2018-May-15 18:30N 29°38' W 094°58'4 7.3
2018-May-15 18:00N 29°41' W 094°59'9 5.7
2018-May-15 16:30N 29°44' W 095°09'7 3.1
2018-May-15 14:23N 29°43' W 095°16'0 0.0
2018-May-15 13:23N 29°43' W 095°16'0 0.0
2018-May-15 12:55N 29°43' W 095°16'0 0.0
2018-May-15 12:21N 29°43' W 095°16'0 0.0
2018-May-15 11:47N 29°43' W 095°16'0 0.0
2018-May-15 10:17N 29°43' W 095°16'0 0.0
2018-May-15 04:30N 29°43' W 095°16'0 0.0
2018-May-15 02:32N 29°43' W 095°16'0 0.0
2018-May-15 02:13N 29°43' W 095°16'0 0.1
2018-May-15 02:00N 29°43' W 095°16'2 4.4
2018-May-15 01:30N 29°43' W 095°14'3 6.5
2018-May-15 01:00N 29°45' W 095°10'5 6.2
2018-May-15 00:17N 29°46' W 095°05'  

Dump ship's entire track history